• Join FlightAware (Why Join?)
  • Login
  • US Flag 
09:00AM EDT


 

Airport Tracker/Info


-or-


 

Live Flight TrackerFlight Track Log ✈ SWA378 ✈ 08-May-2013 ✈ KSJC - KLAX

Flight Track Log - Related Links

Times and Time Zones

All times are in EDT time to prevent confusion due to time zone crossing. See the SWA378 flight status page for this flight to view local times or setup timezone preferences in your user account.

Time Position Orientation Groundspeed Altitude Reporting Facility
EDT Latitude Longitude Course Direction KTS MPH feet Rate Location/Type
11:43AM 37.4000 -121.9667 141° Southeast 196 226 2,700  Level Northern Cal TRACON
11:44AM 37.4000 -121.9000 90° East 238 274 4,900 1,680 Climbing Northern Cal TRACON
11:45AM 37.3667 -121.8500 130° Southeast 232 267 6,000 2,220 Climbing Northern Cal TRACON
11:46AM 37.3081 -121.7847 138° Southeast 235 270 9,900 2,520 Climbing Oakland Center
11:47AM 37.2544 -121.7158 134° Southeast 270 311 11,700 2,400 Climbing Oakland Center
11:48AM 36.9251 -121.4551 141° Southeast  Level Estimated
11:48AM 37.1878 -121.6336 135° Southeast 327 376 14,900  Level Oakland Center
11:49AM 37.1142 -121.5450 136° Southeast 355 409 18,200 3,240 Climbing Oakland Center
11:50AM 37.0283 -121.4511 139° Southeast 382 440 21,600 2,940 Climbing Oakland Center
11:51AM 36.9425 -121.3567 139° Southeast 403 464 24,300 2,640 Climbing Oakland Center
11:52AM 36.8544 -121.2614 139° Southeast 416 479 27,100 2,700 Climbing Oakland Center
11:53AM 36.7489 -121.1481 139° Southeast 429 494 29,800 2,100 Climbing Oakland Center
11:54AM 36.6556 -121.0478 139° Southeast 440 506 31,500 1,500 Climbing Oakland Center
11:55AM 36.5575 -120.9419 139° Southeast 459 528 32,900 1,380 Climbing Oakland Center
11:56AM 36.4564 -120.8325 139° Southeast 476 548 34,400 1,020 Climbing Oakland Center
11:57AM 36.3522 -120.7225 140° Southeast 488 562 35,000 240 Climbing Oakland Center
11:58AM 36.2472 -120.6094 139° Southeast 495 570 35,000  Level Oakland Center
11:59AM 36.1214 -120.4764 139° Southeast 495 570 35,000  Level Oakland Center
12:00PM 36.0167 -120.3636 139° Southeast 491 565 35,000  Level Oakland Center
12:01PM 35.9122 -120.2558 140° Southeast 496 571 35,000  Level Oakland Center
12:02PM 35.8103 -120.1494 140° Southeast 480 552 35,000  Level Oakland Center
12:03PM 35.7056 -120.0408 140° Southeast 484 557 35,000  Level Oakland Center
12:04PM 35.5986 -119.9358 141° Southeast 487 560 35,000  Level Oakland Center
12:05PM 35.4878 -119.8400 145° Southeast 484 557 35,000  Level Oakland Center
12:06PM 35.3775 -119.7456 145° Southeast 481 554 35,000  Level Oakland Center
12:07PM 35.3125 -119.6892 145° Southeast 479 551 35,000  Level Los Angeles Center
12:08PM 35.2044 -119.5969 145° Southeast 475 547 35,000 -240 Level Los Angeles Center
12:09PM 35.0956 -119.5042 145° Southeast 474 545 34,600 -1,620 Descending Los Angeles Center
12:10PM 34.9889 -119.4128 145° Southeast 471 542 31,700 -2,880 Descending Los Angeles Center
12:11PM 34.8608 -119.3056 145° Southeast 465 535 28,700 -2,640 Descending Los Angeles Center
12:12PM 34.7603 -119.2219 146° Southeast 446 513 26,300 -2,280 Descending Los Angeles Center
12:13PM 34.6633 -119.1397 145° Southeast 431 496 24,000 -2,340 Descending Los Angeles Center
12:14PM 34.5636 -119.0564 145° Southeast 410 472 21,500 -2,280 Descending Los Angeles Center
12:15PM 34.4736 -118.9797 145° Southeast 392 451 19,300 -2,100 Descending Los Angeles Center
12:16PM 34.3856 -118.9067 146° Southeast 378 435 17,200 -2,160 Descending Los Angeles Center
12:17PM 34.2931 -118.8597 157° South 359 413 14,900 -2,460 Descending Los Angeles Center
12:18PM 34.1783 -118.8167 163° South 355 409 12,200 -2,340 Descending Los Angeles Center
12:19PM 34.0850 -118.7814 163° South 353 406 10,100 -1,080 Descending Los Angeles Center
12:20PM 34.0328 -118.7000 128° Southeast 320 368 10,000 -540 Descending Los Angeles Center
12:21PM 34.0231 -118.6006 97° East 302 348 9,100 -1,260 Descending Los Angeles Center
12:22PM 34.0133 -118.4956 96° East 294 338 7,500 -1,080 Descending Los Angeles Center
12:23PM 34.0139 -118.4197 89° East 276 318 6,900 -1,020 Descending Los Angeles Center
12:24PM 34.0183 -118.3250 87° East 240 276 5,500 -1,200 Descending Los Angeles Center
12:25PM 34.0153 -118.2556 93° East 219 252 4,500 -1,200 Descending Los Angeles Center
12:26PM 33.9661 -118.2503 175° South 200 230 3,100 -1,320 Descending Los Angeles Center
12:28PM 33.9631 -118.3031 266° West 174 200 1,800 -1,020 Descending Los Angeles Center
12:29PM 33.9581 -118.3475 262° West 152 175 1,100 -780 Descending Los Angeles Center
12:30PM 33.9531 -118.3986 263° West 136 157 300 -780 Descending Los Angeles Center
12:32PM 33.9333 -118.4000 228° Southwest  Level FlightAware Approximate